sensor_id;sensor_type;location;lat;lon;timestamp;temperature;humidity
36552;DHT22;22559;54.176;12.102;2023-07-22T00:01:02;14.00;99.90
36552;DHT22;22559;54.176;12.102;2023-07-22T00:03:27;14.00;99.90
36552;DHT22;22559;54.176;12.102;2023-07-22T00:06:08;14.00;99.90
36552;DHT22;22559;54.176;12.102;2023-07-22T00:08:34;14.00;99.90
36552;DHT22;22559;54.176;12.102;2023-07-22T00:11:00;14.00;99.90
36552;DHT22;22559;54.176;12.102;2023-07-22T00:13:26;14.10;99.90
36552;DHT22;22559;54.176;12.102;2023-07-22T00:15:53;14.10;99.90
36552;DHT22;22559;54.176;12.102;2023-07-22T00:18:19;14.10;99.90
36552;DHT22;22559;54.176;12.102;2023-07-22T00:20:44;14.10;99.90
36552;DHT22;22559;54.176;12.102;2023-07-22T00:23:10;14.10;99.90
36552;DHT22;22559;54.176;12.102;2023-07-22T00:25:36;14.10;99.90
36552;DHT22;22559;54.176;12.102;2023-07-22T00:28:02;14.10;99.90
36552;DHT22;22559;54.176;12.102;2023-07-22T00:30:29;14.10;99.90
36552;DHT22;22559;54.176;12.102;2023-07-22T00:32:55;14.10;99.90
36552;DHT22;22559;54.176;12.102;2023-07-22T00:35:20;14.10;99.90
36552;DHT22;22559;54.176;12.102;2023-07-22T00:37:46;14.10;99.90
36552;DHT22;22559;54.176;12.102;2023-07-22T00:40:13;14.10;99.90
36552;DHT22;22559;54.176;12.102;2023-07-22T00:42:39;14.10;99.90
36552;DHT22;22559;54.176;12.102;2023-07-22T00:45:06;14.10;99.90
36552;DHT22;22559;54.176;12.102;2023-07-22T00:47:34;14.10;99.90
36552;DHT22;22559;54.176;12.102;2023-07-22T00:50:01;14.10;99.90
36552;DHT22;22559;54.176;12.102;2023-07-22T00:52:27;14.10;99.90
36552;DHT22;22559;54.176;12.102;2023-07-22T00:54:53;14.10;99.90
36552;DHT22;22559;54.176;12.102;2023-07-22T00:57:19;14.10;99.90
36552;DHT22;22559;54.176;12.102;2023-07-22T00:59:45;14.10;99.90
36552;DHT22;22559;54.176;12.102;2023-07-22T01:02:11;14.00;99.90
36552;DHT22;22559;54.176;12.102;2023-07-22T01:04:37;14.00;99.90
36552;DHT22;22559;54.176;12.102;2023-07-22T01:07:04;14.00;99.90
36552;DHT22;22559;54.176;12.102;2023-07-22T01:09:37;14.00;99.90
36552;DHT22;22559;54.176;12.102;2023-07-22T01:12:03;13.90;99.90
36552;DHT22;22559;54.176;12.102;2023-07-22T01:14:34;13.90;99.90
36552;DHT22;22559;54.176;12.102;2023-07-22T01:17:05;13.80;99.90
36552;DHT22;22559;54.176;12.102;2023-07-22T01:19:32;13.80;99.90
36552;DHT22;22559;54.176;12.102;2023-07-22T01:22:00;13.80;99.90
36552;DHT22;22559;54.176;12.102;2023-07-22T01:24:28;13.80;99.90
36552;DHT22;22559;54.176;12.102;2023-07-22T01:26:54;13.80;99.90
36552;DHT22;22559;54.176;12.102;2023-07-22T01:29:22;13.70;99.90
36552;DHT22;22559;54.176;12.102;2023-07-22T01:31:50;13.70;99.90
36552;DHT22;22559;54.176;12.102;2023-07-22T01:34:16;13.70;99.90
36552;DHT22;22559;54.176;12.102;2023-07-22T01:36:42;13.70;99.90
36552;DHT22;22559;54.176;12.102;2023-07-22T01:39:08;13.70;99.90
36552;DHT22;22559;54.176;12.102;2023-07-22T01:41:36;13.70;99.90
36552;DHT22;22559;54.176;12.102;2023-07-22T01:44:02;13.60;99.90
36552;DHT22;22559;54.176;12.102;2023-07-22T01:46:27;13.60;99.90
36552;DHT22;22559;54.176;12.102;2023-07-22T01:48:53;13.50;99.90
36552;DHT22;22559;54.176;12.102;2023-07-22T01:51:20;13.50;99.90
36552;DHT22;22559;54.176;12.102;2023-07-22T01:53:45;13.50;99.90
36552;DHT22;22559;54.176;12.102;2023-07-22T01:56:11;13.50;99.90
36552;DHT22;22559;54.176;12.102;2023-07-22T01:58:37;13.50;99.90
36552;DHT22;22559;54.176;12.102;2023-07-22T02:01:02;13.50;99.90
36552;DHT22;22559;54.176;12.102;2023-07-22T02:03:28;13.50;99.90
36552;DHT22;22559;54.176;12.102;2023-07-22T02:06:01;13.40;99.90
36552;DHT22;22559;54.176;12.102;2023-07-22T02:08:27;13.50;99.90
36552;DHT22;22559;54.176;12.102;2023-07-22T02:10:52;13.40;99.90
36552;DHT22;22559;54.176;12.102;2023-07-22T02:13:18;13.40;99.90
36552;DHT22;22559;54.176;12.102;2023-07-22T02:15:44;13.40;99.90
36552;DHT22;22559;54.176;12.102;2023-07-22T02:18:09;13.50;99.90
36552;DHT22;22559;54.176;12.102;2023-07-22T02:20:35;13.50;99.90
36552;DHT22;22559;54.176;12.102;2023-07-22T02:23:01;13.40;99.90
36552;DHT22;22559;54.176;12.102;2023-07-22T02:25:26;13.40;99.90
36552;DHT22;22559;54.176;12.102;2023-07-22T02:27:52;13.40;99.90
36552;DHT22;22559;54.176;12.102;2023-07-22T02:30:17;13.40;99.90
36552;DHT22;22559;54.176;12.102;2023-07-22T02:32:43;13.40;99.90
36552;DHT22;22559;54.176;12.102;2023-07-22T02:35:09;13.40;99.90
36552;DHT22;22559;54.176;12.102;2023-07-22T02:37:38;13.30;99.90
36552;DHT22;22559;54.176;12.102;2023-07-22T02:40:04;13.40;99.90
36552;DHT22;22559;54.176;12.102;2023-07-22T02:42:39;13.40;99.90
36552;DHT22;22559;54.176;12.102;2023-07-22T02:45:05;13.40;99.90
36552;DHT22;22559;54.176;12.102;2023-07-22T02:47:33;13.40;99.90
36552;DHT22;22559;54.176;12.102;2023-07-22T02:50:00;13.40;99.90
36552;DHT22;22559;54.176;12.102;2023-07-22T02:52:26;13.40;99.90
36552;DHT22;22559;54.176;12.102;2023-07-22T02:55:08;13.40;99.90
36552;DHT22;22559;54.176;12.102;2023-07-22T02:57:34;13.40;99.90
36552;DHT22;22559;54.176;12.102;2023-07-22T03:00:00;13.40;99.90
36552;DHT22;22559;54.176;12.102;2023-07-22T03:02:26;13.40;99.90
36552;DHT22;22559;54.176;12.102;2023-07-22T03:04:52;13.40;99.90
36552;DHT22;22559;54.176;12.102;2023-07-22T03:07:17;13.40;99.90
36552;DHT22;22559;54.176;12.102;2023-07-22T03:09:43;13.40;99.90
36552;DHT22;22559;54.176;12.102;2023-07-22T03:12:08;13.40;99.90
36552;DHT22;22559;54.176;12.102;2023-07-22T03:14:34;13.40;99.90
36552;DHT22;22559;54.176;12.102;2023-07-22T03:17:02;13.40;99.90
36552;DHT22;22559;54.176;12.102;2023-07-22T03:19:31;13.40;99.90
36552;DHT22;22559;54.176;12.102;2023-07-22T03:21:57;13.40;99.90
36552;DHT22;22559;54.176;12.102;2023-07-22T03:24:22;13.40;99.90
36552;DHT22;22559;54.176;12.102;2023-07-22T03:26:48;13.40;99.90
36552;DHT22;22559;54.176;12.102;2023-07-22T03:29:14;13.40;99.90
36552;DHT22;22559;54.176;12.102;2023-07-22T03:31:40;13.40;99.90
36552;DHT22;22559;54.176;12.102;2023-07-22T03:34:05;13.40;99.90
36552;DHT22;22559;54.176;12.102;2023-07-22T03:36:31;13.40;99.90
36552;DHT22;22559;54.176;12.102;2023-07-22T03:38:59;13.40;99.90
36552;DHT22;22559;54.176;12.102;2023-07-22T03:41:25;13.40;99.90
36552;DHT22;22559;54.176;12.102;2023-07-22T03:43:51;13.40;99.90
36552;DHT22;22559;54.176;12.102;2023-07-22T03:46:16;13.40;99.90
36552;DHT22;22559;54.176;12.102;2023-07-22T03:48:42;13.40;99.90
36552;DHT22;22559;54.176;12.102;2023-07-22T03:51:08;13.40;99.90
36552;DHT22;22559;54.176;12.102;2023-07-22T03:53:33;13.40;99.90
36552;DHT22;22559;54.176;12.102;2023-07-22T03:55:59;13.40;99.90
36552;DHT22;22559;54.176;12.102;2023-07-22T03:58:24;13.50;99.90
36552;DHT22;22559;54.176;12.102;2023-07-22T04:00:50;13.50;99.90
36552;DHT22;22559;54.176;12.102;2023-07-22T04:03:15;13.50;99.90
36552;DHT22;22559;54.176;12.102;2023-07-22T04:05:41;13.60;99.90
36552;DHT22;22559;54.176;12.102;2023-07-22T04:08:07;13.60;99.90
36552;DHT22;22559;54.176;12.102;2023-07-22T04:10:32;13.60;99.90
36552;DHT22;22559;54.176;12.102;2023-07-22T04:12:58;13.70;99.90
36552;DHT22;22559;54.176;12.102;2023-07-22T04:15:23;13.70;99.90
36552;DHT22;22559;54.176;12.102;2023-07-22T04:17:49;13.70;99.90
36552;DHT22;22559;54.176;12.102;2023-07-22T04:20:15;13.70;99.90
36552;DHT22;22559;54.176;12.102;2023-07-22T04:22:41;13.70;99.90
36552;DHT22;22559;54.176;12.102;2023-07-22T04:25:07;13.70;99.90
36552;DHT22;22559;54.176;12.102;2023-07-22T04:27:33;13.80;99.90
36552;DHT22;22559;54.176;12.102;2023-07-22T04:29:59;13.90;99.90
36552;DHT22;22559;54.176;12.102;2023-07-22T04:32:25;13.90;99.90
36552;DHT22;22559;54.176;12.102;2023-07-22T04:34:51;13.90;99.90
36552;DHT22;22559;54.176;12.102;2023-07-22T04:37:16;13.90;99.90
36552;DHT22;22559;54.176;12.102;2023-07-22T04:39:42;14.00;99.90
36552;DHT22;22559;54.176;12.102;2023-07-22T04:42:11;14.00;99.90
36552;DHT22;22559;54.176;12.102;2023-07-22T04:44:37;14.10;99.90
36552;DHT22;22559;54.176;12.102;2023-07-22T04:47:03;14.10;99.90
36552;DHT22;22559;54.176;12.102;2023-07-22T04:49:28;14.10;99.90
36552;DHT22;22559;54.176;12.102;2023-07-22T04:51:54;14.10;99.90
36552;DHT22;22559;54.176;12.102;2023-07-22T04:54:19;14.20;99.90
36552;DHT22;22559;54.176;12.102;2023-07-22T04:56:45;14.10;99.90
36552;DHT22;22559;54.176;12.102;2023-07-22T04:59:11;14.20;99.90
36552;DHT22;22559;54.176;12.102;2023-07-22T05:01:38;14.20;99.90
36552;DHT22;22559;54.176;12.102;2023-07-22T05:04:04;14.20;99.90
36552;DHT22;22559;54.176;12.102;2023-07-22T05:06:30;14.20;99.90
36552;DHT22;22559;54.176;12.102;2023-07-22T05:08:56;14.30;99.90
36552;DHT22;22559;54.176;12.102;2023-07-22T05:11:22;14.30;99.90
36552;DHT22;22559;54.176;12.102;2023-07-22T05:13:48;14.40;99.90
36552;DHT22;22559;54.176;12.102;2023-07-22T05:16:14;14.50;99.90
36552;DHT22;22559;54.176;12.102;2023-07-22T05:18:40;14.50;99.90
36552;DHT22;22559;54.176;12.102;2023-07-22T05:21:05;14.50;99.90
36552;DHT22;22559;54.176;12.102;2023-07-22T05:23:31;14.60;99.90
36552;DHT22;22559;54.176;12.102;2023-07-22T05:25:57;14.60;99.90
36552;DHT22;22559;54.176;12.102;2023-07-22T05:28:23;14.60;99.90
36552;DHT22;22559;54.176;12.102;2023-07-22T05:30:48;14.70;99.90
36552;DHT22;22559;54.176;12.102;2023-07-22T05:33:14;14.70;99.90
36552;DHT22;22559;54.176;12.102;2023-07-22T05:35:40;14.70;99.90
36552;DHT22;22559;54.176;12.102;2023-07-22T05:38:05;14.70;99.90
36552;DHT22;22559;54.176;12.102;2023-07-22T05:40:31;14.70;99.90
36552;DHT22;22559;54.176;12.102;2023-07-22T05:42:57;14.70;99.90
36552;DHT22;22559;54.176;12.102;2023-07-22T05:45:23;14.70;99.90
36552;DHT22;22559;54.176;12.102;2023-07-22T05:47:48;14.70;99.90
36552;DHT22;22559;54.176;12.102;2023-07-22T05:50:14;14.70;99.90
36552;DHT22;22559;54.176;12.102;2023-07-22T05:52:40;14.70;99.90
36552;DHT22;22559;54.176;12.102;2023-07-22T05:55:05;14.80;99.90
36552;DHT22;22559;54.176;12.102;2023-07-22T05:57:31;14.80;99.90
36552;DHT22;22559;54.176;12.102;2023-07-22T05:59:57;14.90;99.90
36552;DHT22;22559;54.176;12.102;2023-07-22T06:02:22;14.90;99.90
36552;DHT22;22559;54.176;12.102;2023-07-22T06:04:48;15.00;99.90
36552;DHT22;22559;54.176;12.102;2023-07-22T06:07:14;15.10;99.90
36552;DHT22;22559;54.176;12.102;2023-07-22T06:09:39;15.20;99.90
36552;DHT22;22559;54.176;12.102;2023-07-22T06:12:05;15.30;99.90
36552;DHT22;22559;54.176;12.102;2023-07-22T06:14:31;15.40;99.90
36552;DHT22;22559;54.176;12.102;2023-07-22T06:16:57;15.50;99.90
36552;DHT22;22559;54.176;12.102;2023-07-22T06:19:22;15.40;99.90
36552;DHT22;22559;54.176;12.102;2023-07-22T06:21:49;15.50;99.90
36552;DHT22;22559;54.176;12.102;2023-07-22T06:24:15;15.50;99.90
36552;DHT22;22559;54.176;12.102;2023-07-22T06:26:41;15.60;99.90
36552;DHT22;22559;54.176;12.102;2023-07-22T06:29:07;15.70;99.90
36552;DHT22;22559;54.176;12.102;2023-07-22T06:31:32;15.80;99.90
36552;DHT22;22559;54.176;12.102;2023-07-22T06:33:58;15.80;99.90
36552;DHT22;22559;54.176;12.102;2023-07-22T06:36:25;15.90;99.90
36552;DHT22;22559;54.176;12.102;2023-07-22T06:38:51;16.00;99.90
36552;DHT22;22559;54.176;12.102;2023-07-22T06:41:17;16.00;99.90
36552;DHT22;22559;54.176;12.102;2023-07-22T06:43:44;16.10;99.90
36552;DHT22;22559;54.176;12.102;2023-07-22T06:46:10;16.20;99.90
36552;DHT22;22559;54.176;12.102;2023-07-22T06:48:35;16.10;99.90
36552;DHT22;22559;54.176;12.102;2023-07-22T06:51:01;16.20;99.90
36552;DHT22;22559;54.176;12.102;2023-07-22T06:53:27;16.10;99.90
36552;DHT22;22559;54.176;12.102;2023-07-22T06:55:55;16.10;99.90
36552;DHT22;22559;54.176;12.102;2023-07-22T06:58:21;16.20;99.90
36552;DHT22;22559;54.176;12.102;2023-07-22T07:00:53;16.20;99.90
36552;DHT22;22559;54.176;12.102;2023-07-22T07:03:19;16.10;99.90
36552;DHT22;22559;54.176;12.102;2023-07-22T07:05:54;16.10;99.90
36552;DHT22;22559;54.176;12.102;2023-07-22T07:08:21;16.00;99.90
36552;DHT22;22559;54.176;12.102;2023-07-22T07:10:47;16.10;99.90
36552;DHT22;22559;54.176;12.102;2023-07-22T07:13:12;16.50;99.90
36552;DHT22;22559;54.176;12.102;2023-07-22T07:15:38;17.20;99.90
36552;DHT22;22559;54.176;12.102;2023-07-22T07:18:04;17.60;99.90
36552;DHT22;22559;54.176;12.102;2023-07-22T07:20:30;17.80;99.90
36552;DHT22;22559;54.176;12.102;2023-07-22T07:22:56;17.80;99.90
36552;DHT22;22559;54.176;12.102;2023-07-22T07:25:21;17.50;99.90
36552;DHT22;22559;54.176;12.102;2023-07-22T07:27:47;17.40;99.90
36552;DHT22;22559;54.176;12.102;2023-07-22T07:30:13;17.30;99.90
36552;DHT22;22559;54.176;12.102;2023-07-22T07:32:39;17.30;99.90
36552;DHT22;22559;54.176;12.102;2023-07-22T07:35:05;17.10;99.90
36552;DHT22;22559;54.176;12.102;2023-07-22T07:37:32;16.90;99.90
36552;DHT22;22559;54.176;12.102;2023-07-22T07:39:57;17.10;99.90
36552;DHT22;22559;54.176;12.102;2023-07-22T07:42:26;17.60;99.90
36552;DHT22;22559;54.176;12.102;2023-07-22T07:44:52;18.20;99.90
36552;DHT22;22559;54.176;12.102;2023-07-22T07:47:18;18.60;99.90
36552;DHT22;22559;54.176;12.102;2023-07-22T07:49:45;18.50;99.90
36552;DHT22;22559;54.176;12.102;2023-07-22T07:52:10;18.60;99.90
36552;DHT22;22559;54.176;12.102;2023-07-22T07:54:36;18.70;99.90
36552;DHT22;22559;54.176;12.102;2023-07-22T07:57:01;18.80;99.90
36552;DHT22;22559;54.176;12.102;2023-07-22T07:59:27;18.70;99.90
36552;DHT22;22559;54.176;12.102;2023-07-22T08:01:53;18.70;99.90
36552;DHT22;22559;54.176;12.102;2023-07-22T08:04:18;18.30;99.90
36552;DHT22;22559;54.176;12.102;2023-07-22T08:06:44;17.90;99.90
36552;DHT22;22559;54.176;12.102;2023-07-22T08:09:10;18.30;99.90
36552;DHT22;22559;54.176;12.102;2023-07-22T08:11:37;18.70;99.90
36552;DHT22;22559;54.176;12.102;2023-07-22T08:14:03;18.90;99.90
36552;DHT22;22559;54.176;12.102;2023-07-22T08:16:31;18.60;99.90
36552;DHT22;22559;54.176;12.102;2023-07-22T08:18:56;18.20;99.90
36552;DHT22;22559;54.176;12.102;2023-07-22T08:21:22;18.50;99.90
36552;DHT22;22559;54.176;12.102;2023-07-22T08:23:48;18.80;99.90
36552;DHT22;22559;54.176;12.102;2023-07-22T08:26:13;19.30;99.90
36552;DHT22;22559;54.176;12.102;2023-07-22T08:28:39;19.40;99.90
36552;DHT22;22559;54.176;12.102;2023-07-22T08:31:05;19.40;99.90
36552;DHT22;22559;54.176;12.102;2023-07-22T08:33:31;19.60;99.90
36552;DHT22;22559;54.176;12.102;2023-07-22T08:35:56;19.90;99.90
36552;DHT22;22559;54.176;12.102;2023-07-22T08:38:22;19.90;99.90
36552;DHT22;22559;54.176;12.102;2023-07-22T08:40:49;20.00;99.90
36552;DHT22;22559;54.176;12.102;2023-07-22T08:43:20;20.00;99.90
36552;DHT22;22559;54.176;12.102;2023-07-22T08:45:47;20.00;99.90
36552;DHT22;22559;54.176;12.102;2023-07-22T08:48:15;20.40;99.90
36552;DHT22;22559;54.176;12.102;2023-07-22T08:53:12;20.60;99.90
36552;DHT22;22559;54.176;12.102;2023-07-22T08:55:38;20.70;99.90
36552;DHT22;22559;54.176;12.102;2023-07-22T08:58:11;20.30;99.90
36552;DHT22;22559;54.176;12.102;2023-07-22T09:00:38;20.40;99.90
36552;DHT22;22559;54.176;12.102;2023-07-22T09:03:05;20.40;99.90
36552;DHT22;22559;54.176;12.102;2023-07-22T09:05:34;20.60;99.90
36552;DHT22;22559;54.176;12.102;2023-07-22T09:08:02;21.10;99.90
36552;DHT22;22559;54.176;12.102;2023-07-22T09:10:29;20.80;99.90
36552;DHT22;22559;54.176;12.102;2023-07-22T09:12:55;20.30;99.90
36552;DHT22;22559;54.176;12.102;2023-07-22T09:15:21;20.60;99.90
36552;DHT22;22559;54.176;12.102;2023-07-22T09:17:49;20.80;99.90
36552;DHT22;22559;54.176;12.102;2023-07-22T09:20:15;20.40;99.90
36552;DHT22;22559;54.176;12.102;2023-07-22T09:22:49;20.30;99.90
36552;DHT22;22559;54.176;12.102;2023-07-22T09:25:22;20.40;99.90
36552;DHT22;22559;54.176;12.102;2023-07-22T09:27:50;20.80;99.90
36552;DHT22;22559;54.176;12.102;2023-07-22T09:30:30;21.40;99.90
36552;DHT22;22559;54.176;12.102;2023-07-22T09:33:00;21.90;99.90
36552;DHT22;22559;54.176;12.102;2023-07-22T09:37:56;22.40;99.90
36552;DHT22;22559;54.176;12.102;2023-07-22T09:40:26;22.70;99.90
36552;DHT22;22559;54.176;12.102;2023-07-22T09:43:01;23.00;99.90
36552;DHT22;22559;54.176;12.102;2023-07-22T09:45:30;22.90;99.90
36552;DHT22;22559;54.176;12.102;2023-07-22T09:47:56;22.60;99.90
36552;DHT22;22559;54.176;12.102;2023-07-22T09:50:23;22.20;99.90
36552;DHT22;22559;54.176;12.102;2023-07-22T09:52:54;22.10;99.90
36552;DHT22;22559;54.176;12.102;2023-07-22T09:55:25;21.60;99.90
36552;DHT22;22559;54.176;12.102;2023-07-22T09:58:04;21.10;99.90
36552;DHT22;22559;54.176;12.102;2023-07-22T10:00:34;20.80;99.90
36552;DHT22;22559;54.176;12.102;2023-07-22T10:03:01;20.40;99.90
36552;DHT22;22559;54.176;12.102;2023-07-22T10:05:27;20.40;99.90
36552;DHT22;22559;54.176;12.102;2023-07-22T10:07:56;20.20;99.90
36552;DHT22;22559;54.176;12.102;2023-07-22T10:10:26;20.90;99.90
36552;DHT22;22559;54.176;12.102;2023-07-22T10:12:53;21.30;99.90
36552;DHT22;22559;54.176;12.102;2023-07-22T10:15:19;20.80;99.90
36552;DHT22;22559;54.176;12.102;2023-07-22T10:17:45;20.40;99.90
36552;DHT22;22559;54.176;12.102;2023-07-22T10:20:13;20.60;99.90
36552;DHT22;22559;54.176;12.102;2023-07-22T10:22:43;20.20;99.90
36552;DHT22;22559;54.176;12.102;2023-07-22T10:25:11;19.90;99.90
36552;DHT22;22559;54.176;12.102;2023-07-22T10:27:38;19.90;99.90
36552;DHT22;22559;54.176;12.102;2023-07-22T10:30:06;20.30;99.90
36552;DHT22;22559;54.176;12.102;2023-07-22T10:32:38;20.90;99.90
36552;DHT22;22559;54.176;12.102;2023-07-22T10:35:04;21.00;99.90
36552;DHT22;22559;54.176;12.102;2023-07-22T10:37:33;20.60;99.90
36552;DHT22;22559;54.176;12.102;2023-07-22T10:40:00;20.60;99.90
36552;DHT22;22559;54.176;12.102;2023-07-22T10:42:26;21.20;99.90
36552;DHT22;22559;54.176;12.102;2023-07-22T10:44:52;21.50;99.90
36552;DHT22;22559;54.176;12.102;2023-07-22T10:47:32;22.30;99.90
36552;DHT22;22559;54.176;12.102;2023-07-22T10:50:05;22.50;99.90
36552;DHT22;22559;54.176;12.102;2023-07-22T10:52:45;22.70;99.90
36552;DHT22;22559;54.176;12.102;2023-07-22T10:55:19;22.80;99.90
36552;DHT22;22559;54.176;12.102;2023-07-22T10:57:53;22.90;99.90
36552;DHT22;22559;54.176;12.102;2023-07-22T11:00:20;22.70;99.90
36552;DHT22;22559;54.176;12.102;2023-07-22T11:05:53;22.80;99.90
36552;DHT22;22559;54.176;12.102;2023-07-22T11:08:40;23.30;99.90
36552;DHT22;22559;54.176;12.102;2023-07-22T11:11:06;23.70;99.90
36552;DHT22;22559;54.176;12.102;2023-07-22T11:13:38;23.50;99.90
36552;DHT22;22559;54.176;12.102;2023-07-22T11:16:09;23.70;99.90
36552;DHT22;22559;54.176;12.102;2023-07-22T11:18:39;23.90;99.90
36552;DHT22;22559;54.176;12.102;2023-07-22T11:21:12;23.90;99.90
36552;DHT22;22559;54.176;12.102;2023-07-22T11:23:38;23.70;99.90
36552;DHT22;22559;54.176;12.102;2023-07-22T11:26:04;23.20;99.90
36552;DHT22;22559;54.176;12.102;2023-07-22T11:28:31;22.80;99.90
36552;DHT22;22559;54.176;12.102;2023-07-22T11:30:56;22.90;99.90
36552;DHT22;22559;54.176;12.102;2023-07-22T11:33:24;22.80;99.90
36552;DHT22;22559;54.176;12.102;2023-07-22T11:35:50;22.80;99.90
36552;DHT22;22559;54.176;12.102;2023-07-22T11:38:15;22.90;99.90
36552;DHT22;22559;54.176;12.102;2023-07-22T11:40:41;23.50;99.90
36552;DHT22;22559;54.176;12.102;2023-07-22T11:43:07;23.80;99.90
36552;DHT22;22559;54.176;12.102;2023-07-22T11:45:33;24.20;99.90
36552;DHT22;22559;54.176;12.102;2023-07-22T11:47:59;23.90;99.90
36552;DHT22;22559;54.176;12.102;2023-07-22T11:50:34;23.70;99.90
36552;DHT22;22559;54.176;12.102;2023-07-22T11:53:00;23.80;99.90
36552;DHT22;22559;54.176;12.102;2023-07-22T11:55:26;23.50;99.90
36552;DHT22;22559;54.176;12.102;2023-07-22T11:57:55;23.10;99.90
36552;DHT22;22559;54.176;12.102;2023-07-22T12:00:21;22.60;99.90
36552;DHT22;22559;54.176;12.102;2023-07-22T12:02:47;22.10;99.90
36552;DHT22;22559;54.176;12.102;2023-07-22T12:05:21;21.90;99.90
36552;DHT22;22559;54.176;12.102;2023-07-22T12:07:47;22.10;99.90
36552;DHT22;22559;54.176;12.102;2023-07-22T12:10:13;22.30;99.90
36552;DHT22;22559;54.176;12.102;2023-07-22T12:12:42;22.20;99.90
36552;DHT22;22559;54.176;12.102;2023-07-22T12:15:17;21.90;99.90
36552;DHT22;22559;54.176;12.102;2023-07-22T12:18:03;21.70;99.90
36552;DHT22;22559;54.176;12.102;2023-07-22T12:20:31;21.50;99.90
36552;DHT22;22559;54.176;12.102;2023-07-22T12:22:58;21.40;99.90
36552;DHT22;22559;54.176;12.102;2023-07-22T12:25:24;21.20;99.90
36552;DHT22;22559;54.176;12.102;2023-07-22T12:27:50;21.00;99.90
36552;DHT22;22559;54.176;12.102;2023-07-22T12:30:16;21.00;99.90
36552;DHT22;22559;54.176;12.102;2023-07-22T12:32:42;21.10;99.90
36552;DHT22;22559;54.176;12.102;2023-07-22T12:35:08;21.30;99.90
36552;DHT22;22559;54.176;12.102;2023-07-22T12:37:34;21.80;99.90
36552;DHT22;22559;54.176;12.102;2023-07-22T12:40:00;22.40;99.90
36552;DHT22;22559;54.176;12.102;2023-07-22T12:42:25;22.40;99.90
36552;DHT22;22559;54.176;12.102;2023-07-22T12:44:51;22.40;99.90
36552;DHT22;22559;54.176;12.102;2023-07-22T12:47:17;22.80;99.90
36552;DHT22;22559;54.176;12.102;2023-07-22T12:49:42;23.30;99.90
36552;DHT22;22559;54.176;12.102;2023-07-22T12:52:08;23.50;99.90
36552;DHT22;22559;54.176;12.102;2023-07-22T12:54:38;23.50;99.90
36552;DHT22;22559;54.176;12.102;2023-07-22T12:57:04;23.00;99.90
36552;DHT22;22559;54.176;12.102;2023-07-22T12:59:29;22.50;99.90
36552;DHT22;22559;54.176;12.102;2023-07-22T13:01:55;21.70;99.90
36552;DHT22;22559;54.176;12.102;2023-07-22T13:04:23;21.40;99.90
36552;DHT22;22559;54.176;12.102;2023-07-22T13:06:50;21.70;99.90
36552;DHT22;22559;54.176;12.102;2023-07-22T13:09:17;21.70;99.90
36552;DHT22;22559;54.176;12.102;2023-07-22T13:11:43;21.50;99.90
36552;DHT22;22559;54.176;12.102;2023-07-22T13:14:08;21.40;99.90
36552;DHT22;22559;54.176;12.102;2023-07-22T13:16:34;21.50;99.90
36552;DHT22;22559;54.176;12.102;2023-07-22T13:19:00;21.80;99.90
36552;DHT22;22559;54.176;12.102;2023-07-22T13:21:28;22.10;99.90
36552;DHT22;22559;54.176;12.102;2023-07-22T13:23:54;22.00;99.90
36552;DHT22;22559;54.176;12.102;2023-07-22T13:26:20;21.70;99.90
36552;DHT22;22559;54.176;12.102;2023-07-22T13:28:45;21.50;99.90
36552;DHT22;22559;54.176;12.102;2023-07-22T13:31:11;21.40;99.90
36552;DHT22;22559;54.176;12.102;2023-07-22T13:33:37;21.20;99.90
36552;DHT22;22559;54.176;12.102;2023-07-22T13:36:02;21.20;99.90
36552;DHT22;22559;54.176;12.102;2023-07-22T13:38:28;21.10;99.90
36552;DHT22;22559;54.176;12.102;2023-07-22T13:40:55;21.70;99.90
36552;DHT22;22559;54.176;12.102;2023-07-22T13:43:21;22.10;99.90
36552;DHT22;22559;54.176;12.102;2023-07-22T13:45:47;22.00;99.90
36552;DHT22;22559;54.176;12.102;2023-07-22T13:48:12;22.00;99.90
36552;DHT22;22559;54.176;12.102;2023-07-22T13:50:38;21.40;99.90
36552;DHT22;22559;54.176;12.102;2023-07-22T13:53:04;20.60;99.90
36552;DHT22;22559;54.176;12.102;2023-07-22T13:55:29;19.90;99.90
36552;DHT22;22559;54.176;12.102;2023-07-22T13:57:55;19.30;99.90
36552;DHT22;22559;54.176;12.102;2023-07-22T14:00:21;18.90;99.90
36552;DHT22;22559;54.176;12.102;2023-07-22T14:02:46;18.70;99.90
36552;DHT22;22559;54.176;12.102;2023-07-22T14:05:12;18.80;99.90
36552;DHT22;22559;54.176;12.102;2023-07-22T14:07:38;19.00;99.90
36552;DHT22;22559;54.176;12.102;2023-07-22T14:10:05;19.00;99.90
36552;DHT22;22559;54.176;12.102;2023-07-22T14:12:31;19.00;99.90
36552;DHT22;22559;54.176;12.102;2023-07-22T14:14:57;19.00;99.90
36552;DHT22;22559;54.176;12.102;2023-07-22T14:17:22;19.00;99.90
36552;DHT22;22559;54.176;12.102;2023-07-22T14:19:48;18.80;99.90
36552;DHT22;22559;54.176;12.102;2023-07-22T14:22:14;19.00;99.90
36552;DHT22;22559;54.176;12.102;2023-07-22T14:24:39;18.80;99.90
36552;DHT22;22559;54.176;12.102;2023-07-22T14:27:05;18.70;99.90
36552;DHT22;22559;54.176;12.102;2023-07-22T14:29:31;18.40;99.90
36552;DHT22;22559;54.176;12.102;2023-07-22T14:31:57;18.40;99.90
36552;DHT22;22559;54.176;12.102;2023-07-22T14:34:23;18.50;99.90
36552;DHT22;22559;54.176;12.102;2023-07-22T14:36:49;18.50;99.90
36552;DHT22;22559;54.176;12.102;2023-07-22T14:39:15;18.50;99.90
36552;DHT22;22559;54.176;12.102;2023-07-22T14:41:42;18.50;99.90
36552;DHT22;22559;54.176;12.102;2023-07-22T14:44:10;18.40;99.90
36552;DHT22;22559;54.176;12.102;2023-07-22T14:46:36;18.10;99.90
36552;DHT22;22559;54.176;12.102;2023-07-22T14:49:02;17.60;99.90
36552;DHT22;22559;54.176;12.102;2023-07-22T14:51:27;17.30;99.90
36552;DHT22;22559;54.176;12.102;2023-07-22T14:53:53;17.10;99.90
36552;DHT22;22559;54.176;12.102;2023-07-22T14:56:19;16.80;99.90
36552;DHT22;22559;54.176;12.102;2023-07-22T14:58:44;16.70;99.90
36552;DHT22;22559;54.176;12.102;2023-07-22T15:01:10;16.60;99.90
36552;DHT22;22559;54.176;12.102;2023-07-22T15:03:38;16.60;99.90
36552;DHT22;22559;54.176;12.102;2023-07-22T15:06:05;16.70;99.90
36552;DHT22;22559;54.176;12.102;2023-07-22T15:08:30;16.80;99.90
36552;DHT22;22559;54.176;12.102;2023-07-22T15:10:56;17.20;99.90
36552;DHT22;22559;54.176;12.102;2023-07-22T15:13:22;17.60;99.90
36552;DHT22;22559;54.176;12.102;2023-07-22T15:15:48;18.30;99.90
36552;DHT22;22559;54.176;12.102;2023-07-22T15:18:13;18.80;99.90
36552;DHT22;22559;54.176;12.102;2023-07-22T15:20:39;19.10;99.90